createdAt,value
2023-04-11T00:08:48.231Z,36.10
2023-04-11T00:11:49.786Z,35.60
2023-04-11T00:14:51.818Z,33.40
2023-04-11T00:17:53.928Z,32.50
2023-04-11T00:20:55.838Z,30.60
2023-04-11T00:26:59.351Z,31.80
2023-04-11T00:30:01.312Z,30.70
2023-04-11T00:36:04.810Z,31.10
2023-04-11T00:39:06.965Z,29.40
2023-04-11T00:42:08.949Z,30.90
2023-04-11T00:45:11.147Z,30.10
2023-04-11T00:48:12.787Z,28.50
2023-04-11T00:51:19.011Z,27.40
2023-04-11T00:54:20.571Z,26.80
2023-04-11T01:00:24.450Z,27.90
2023-04-11T01:03:26.523Z,24.40
2023-04-11T01:06:30.080Z,28.00
2023-04-11T01:09:33.278Z,26.10
2023-04-11T01:12:36.014Z,26.30
2023-04-11T01:15:37.539Z,22.70
2023-04-11T01:21:41.328Z,26.70
2023-04-11T01:24:42.922Z,29.60
2023-04-11T01:27:44.810Z,29.70
2023-04-11T01:30:46.671Z,30.10
2023-04-11T01:33:48.501Z,30.20
2023-04-11T01:36:50.086Z,27.30
2023-04-11T01:39:52.133Z,28.20
2023-04-11T01:42:56.897Z,29.70
2023-04-11T01:49:00.494Z,30.10
2023-04-11T01:52:02.857Z,26.90
2023-04-11T01:55:04.819Z,23.00
2023-04-11T01:58:06.439Z,20.70
2023-04-11T02:01:08.594Z,20.00
2023-04-11T02:04:10.649Z,23.10
2023-04-11T02:07:12.779Z,22.20
2023-04-11T02:10:14.335Z,18.50
2023-04-11T02:13:16.183Z,18.30
2023-04-11T02:16:18.152Z,19.60
2023-04-11T02:19:20.073Z,19.90
2023-04-11T02:22:21.692Z,19.80
2023-04-11T02:25:23.458Z,17.50
2023-04-11T02:28:25.001Z,16.90
2023-04-11T02:31:26.596Z,18.70
2023-04-11T02:37:29.834Z,16.80
2023-04-11T02:40:31.550Z,15.80
2023-04-11T02:43:33.324Z,16.40
2023-04-11T02:46:35.098Z,17.00
2023-04-11T02:49:36.812Z,19.40
2023-04-11T02:52:38.855Z,20.40
2023-04-11T02:55:40.369Z,18.10
2023-04-11T02:58:42.231Z,19.40
2023-04-11T03:01:45.058Z,18.80
2023-04-11T03:04:46.627Z,19.80
2023-04-11T03:07:48.171Z,20.50
2023-04-11T03:10:49.697Z,22.00
2023-04-11T03:13:51.226Z,21.30
2023-04-11T03:16:52.982Z,19.60
2023-04-11T03:19:54.538Z,20.20
2023-04-11T03:22:56.117Z,20.50
2023-04-11T03:25:57.672Z,20.40
2023-04-11T03:28:59.272Z,22.60
2023-04-11T03:32:00.886Z,19.30
2023-04-11T03:35:02.509Z,19.60
2023-04-11T03:38:04.126Z,21.40
2023-04-11T03:41:05.987Z,21.30
2023-04-11T03:44:07.607Z,19.70
2023-04-11T03:50:11.027Z,21.20
2023-04-11T03:56:14.157Z,17.40
2023-04-11T03:59:15.764Z,18.00
2023-04-11T04:02:17.398Z,17.10
2023-04-11T04:08:20.772Z,18.60
2023-04-11T04:11:22.297Z,18.00
2023-04-11T04:17:25.625Z,19.00
2023-04-11T04:20:27.294Z,17.50
2023-04-11T04:23:29.085Z,18.50
2023-04-11T04:26:31.195Z,19.00
2023-04-11T04:29:32.829Z,16.90
2023-04-11T04:32:35.136Z,18.60
2023-04-11T04:35:36.829Z,17.50
2023-04-11T04:41:40.114Z,15.50
2023-04-11T04:44:41.841Z,19.90
2023-04-11T04:50:44.912Z,15.90
2023-04-11T04:53:46.523Z,16.50
2023-04-11T04:56:48.044Z,17.80
2023-04-11T04:59:49.626Z,19.30
2023-04-11T05:02:51.251Z,18.60
2023-04-11T05:08:54.632Z,18.40
2023-04-11T05:11:56.366Z,18.90
2023-04-11T05:17:59.617Z,19.00
2023-04-11T05:24:03.465Z,19.40
2023-04-11T05:27:05.175Z,17.40
2023-04-11T05:33:08.621Z,16.20
2023-04-11T05:39:11.869Z,16.30
2023-04-11T05:42:14.923Z,18.70
2023-04-11T05:45:16.721Z,19.70
2023-04-11T05:51:19.982Z,24.10
2023-04-11T05:57:33.373Z,20.20
2023-04-11T06:00:35.247Z,19.40
2023-04-11T06:03:36.975Z,15.80
2023-04-11T06:06:38.561Z,15.50
2023-04-11T06:12:41.748Z,15.50
2023-04-11T06:15:43.346Z,16.80
2023-04-11T06:18:45.111Z,16.90
2023-04-11T06:21:46.708Z,16.30
2023-04-11T06:24:48.232Z,14.10
2023-04-11T06:27:50.280Z,13.50
2023-04-11T06:30:51.946Z,12.30
2023-04-11T06:33:53.600Z,12.40
2023-04-11T06:36:55.251Z,11.70
2023-04-11T06:39:56.837Z,11.60
2023-04-11T06:42:58.588Z,10.60
2023-04-11T06:46:00.380Z,10.10
2023-04-11T06:49:01.901Z,10.00
2023-04-11T06:52:03.614Z,9.30
2023-04-11T06:55:06.098Z,8.90
2023-04-11T06:58:07.680Z,9.10
2023-04-11T07:01:09.317Z,9.30
2023-04-11T07:04:11.289Z,8.50
2023-04-11T07:07:12.970Z,8.10
2023-04-11T07:10:14.703Z,7.80
2023-04-11T07:13:16.351Z,8.20
2023-04-11T07:16:17.961Z,7.30
2023-04-11T07:19:19.524Z,7.20
2023-04-11T07:22:21.243Z,7.30
2023-04-11T07:25:26.443Z,7.70
2023-04-11T07:28:28.205Z,7.50
2023-04-11T07:31:29.754Z,7.90
2023-04-11T07:34:31.356Z,7.50
2023-04-11T07:37:32.958Z,8.00
2023-04-11T07:40:34.483Z,9.30
2023-04-11T07:43:36.284Z,8.30
2023-04-11T07:46:38.043Z,7.80
2023-04-11T07:49:39.768Z,7.80
2023-04-11T07:52:41.299Z,7.50
2023-04-11T07:55:42.883Z,7.80
2023-04-11T07:58:44.411Z,8.40
2023-04-11T08:01:46.212Z,8.40
2023-04-11T08:04:47.942Z,8.70
2023-04-11T08:07:49.545Z,8.20
2023-04-11T08:10:52.267Z,8.20
2023-04-11T08:13:54.215Z,8.20
2023-04-11T08:16:55.921Z,7.60
2023-04-11T08:19:57.801Z,7.80
2023-04-11T08:22:59.428Z,7.10
2023-04-11T08:26:00.999Z,7.00
2023-04-11T08:29:02.966Z,6.90
2023-04-11T08:32:04.984Z,7.60
2023-04-11T08:35:07.164Z,7.50
2023-04-11T08:38:09.432Z,6.90
2023-04-11T08:41:12.387Z,6.40
2023-04-11T08:44:13.993Z,6.60
2023-04-11T08:47:15.917Z,6.50
2023-04-11T08:50:17.524Z,6.70
2023-04-11T08:53:21.004Z,6.30
2023-04-11T08:56:22.592Z,6.00
2023-04-11T08:59:24.078Z,6.10
2023-04-11T09:02:26.371Z,6.50
2023-04-11T09:05:33.092Z,6.00
2023-04-11T09:08:38.356Z,5.50
2023-04-11T09:11:53.738Z,5.70
2023-04-11T09:14:55.325Z,4.90
2023-04-11T09:18:00.376Z,4.70
2023-04-11T09:21:07.412Z,4.80
2023-04-11T09:24:15.437Z,5.00
2023-04-11T09:27:17.534Z,4.80
2023-04-11T09:30:26.115Z,4.40
2023-04-11T09:33:27.792Z,3.90
2023-04-11T09:36:29.322Z,4.30
2023-04-11T09:39:31.164Z,4.70
2023-04-11T09:42:32.780Z,4.80
2023-04-11T09:45:44.204Z,4.70
2023-04-11T09:48:54.575Z,4.50
2023-04-11T09:51:57.785Z,4.70
2023-04-11T09:55:00.003Z,4.50
2023-04-11T09:58:02.275Z,4.40
2023-04-11T10:01:05.932Z,4.20
2023-04-11T10:04:07.519Z,4.40
2023-04-11T10:07:13.167Z,4.30
2023-04-11T10:10:22.133Z,4.00
2023-04-11T10:13:43.233Z,4.50
2023-04-11T10:17:17.891Z,4.90
2023-04-11T10:20:43.015Z,5.10
2023-04-11T10:24:18.153Z,4.90
2023-04-11T10:27:49.036Z,4.10
2023-04-11T10:34:13.788Z,5.10
2023-04-11T10:37:15.644Z,4.70
2023-04-11T10:40:17.330Z,4.50
2023-04-11T10:43:19.707Z,4.80
2023-04-11T10:46:23.254Z,4.50
2023-04-11T10:49:33.336Z,4.60
2023-04-11T10:52:37.961Z,4.50
2023-04-11T10:55:50.262Z,4.50
2023-04-11T10:58:51.828Z,4.60
2023-04-11T11:01:57.038Z,4.90
2023-04-11T11:04:59.982Z,4.50
2023-04-11T11:08:01.565Z,4.70
2023-04-11T11:11:05.136Z,5.00
2023-04-11T11:14:06.654Z,4.90
2023-04-11T11:17:08.521Z,4.80
2023-04-11T11:20:17.823Z,4.70
2023-04-11T11:23:19.324Z,5.00
2023-04-11T11:26:20.931Z,5.00
2023-04-11T11:29:34.209Z,4.80
2023-04-11T11:32:35.849Z,4.80
2023-04-11T11:35:37.682Z,5.50
2023-04-11T11:38:39.739Z,6.90
2023-04-11T11:41:41.428Z,5.00
2023-04-11T11:44:42.979Z,5.00
2023-04-11T11:47:45.978Z,4.60
2023-04-11T11:50:47.581Z,5.10
2023-04-11T11:54:05.803Z,4.70
2023-04-11T11:57:07.523Z,5.10
2023-04-11T12:00:09.806Z,5.10
2023-04-11T12:03:11.609Z,5.00
2023-04-11T12:06:13.387Z,5.10
2023-04-11T12:09:14.970Z,6.00
2023-04-11T12:12:16.502Z,5.40
2023-04-11T12:15:19.926Z,4.70
2023-04-11T12:18:26.725Z,4.60
2023-04-11T12:21:28.637Z,4.90
2023-04-11T12:24:30.227Z,4.60
2023-04-11T12:27:31.795Z,5.10
2023-04-11T12:30:33.430Z,6.00
2023-04-11T12:33:35.605Z,4.70
2023-04-11T12:36:37.163Z,5.00
2023-04-11T12:39:38.681Z,4.60
2023-04-11T12:42:49.423Z,4.90
2023-04-11T12:45:57.610Z,5.40
2023-04-11T12:48:59.199Z,5.10
2023-04-11T12:52:00.722Z,5.00
2023-04-11T12:55:03.349Z,5.70
2023-04-11T12:58:05.040Z,5.30
2023-04-11T13:01:07.061Z,5.40
2023-04-11T13:04:09.237Z,5.30
2023-04-11T13:07:10.844Z,5.50
2023-04-11T13:10:13.158Z,5.50
2023-04-11T13:13:18.345Z,5.70
2023-04-11T13:16:20.450Z,5.40
2023-04-11T13:19:23.024Z,5.00
2023-04-11T13:22:24.871Z,5.40
2023-04-11T13:25:26.580Z,5.30
2023-04-11T13:28:28.097Z,5.90
2023-04-11T13:31:29.722Z,5.80
2023-04-11T13:34:31.457Z,5.70
2023-04-11T13:37:33.056Z,6.00
2023-04-11T13:40:34.591Z,6.20
2023-04-11T13:43:36.102Z,5.80
2023-04-11T13:46:37.609Z,5.70
2023-04-11T13:49:39.243Z,5.90
2023-04-11T13:52:41.222Z,6.30
2023-04-11T13:55:42.706Z,6.00
2023-04-11T13:58:44.359Z,5.90
2023-04-11T14:01:45.995Z,6.00
2023-04-11T14:04:47.779Z,5.70
2023-04-11T14:07:49.242Z,5.50
2023-04-11T14:10:50.916Z,5.50
2023-04-11T14:13:52.436Z,5.20
2023-04-11T14:16:54.288Z,5.60
2023-04-11T14:19:55.892Z,5.30
2023-04-11T14:22:57.481Z,5.90
2023-04-11T14:25:59.445Z,5.40
2023-04-11T14:29:01.002Z,5.40
2023-04-11T14:32:02.728Z,5.40
2023-04-11T14:35:04.940Z,5.30
2023-04-11T14:38:06.502Z,5.40
2023-04-11T14:41:09.701Z,5.50
2023-04-11T14:44:12.736Z,5.30
2023-04-11T14:47:22.475Z,5.70
2023-04-11T14:50:24.761Z,5.70
2023-04-11T14:53:27.203Z,5.30
2023-04-11T14:56:28.887Z,5.30
2023-04-11T14:59:30.476Z,5.40
2023-04-11T15:02:32.333Z,5.60
2023-04-11T15:05:34.121Z,6.10
2023-04-11T15:08:35.661Z,5.70
2023-04-11T15:11:37.602Z,5.80
2023-04-11T15:14:39.132Z,6.40
2023-04-11T15:17:42.564Z,6.00
2023-04-11T15:20:44.168Z,6.10
2023-04-11T15:23:45.790Z,6.20
2023-04-11T15:26:47.318Z,6.40
2023-04-11T15:29:48.946Z,6.20
2023-04-11T15:32:50.608Z,5.40
2023-04-11T15:35:52.906Z,6.20
2023-04-11T15:38:54.572Z,7.00
2023-04-11T15:41:56.077Z,7.10
2023-04-11T15:44:57.724Z,7.20
2023-04-11T15:47:59.324Z,8.00
2023-04-11T15:51:08.330Z,8.70
2023-04-11T15:54:09.835Z,8.60
2023-04-11T15:57:11.363Z,8.80
2023-04-11T16:00:13.539Z,8.70
2023-04-11T16:03:15.305Z,7.50
2023-04-11T16:06:17.244Z,7.90
2023-04-11T16:09:18.967Z,9.00
2023-04-11T16:12:20.518Z,8.60
2023-04-11T16:15:22.232Z,7.50
2023-04-11T16:18:23.723Z,8.20
2023-04-11T16:21:25.294Z,7.40
2023-04-11T16:24:28.855Z,7.20
2023-04-11T16:27:30.505Z,6.50
2023-04-11T16:30:32.201Z,6.40
2023-04-11T16:33:33.880Z,6.50
2023-04-11T16:36:35.770Z,6.30
2023-04-11T16:39:37.877Z,6.30
2023-04-11T16:42:39.472Z,8.70
2023-04-11T16:45:41.255Z,10.10
2023-04-11T16:48:43.212Z,10.90
2023-04-11T16:51:44.712Z,9.90
2023-04-11T16:54:46.399Z,12.40
2023-04-11T16:57:47.937Z,15.10
2023-04-11T17:00:50.319Z,16.20
2023-04-11T17:03:52.528Z,18.10
2023-04-11T17:06:54.373Z,18.10
2023-04-11T17:09:56.227Z,17.30
2023-04-11T17:12:58.382Z,18.40
2023-04-11T17:16:00.129Z,17.90
2023-04-11T17:19:01.856Z,17.60
2023-04-11T17:22:03.551Z,18.00
2023-04-11T17:25:05.779Z,16.80
2023-04-11T17:28:07.550Z,15.60
2023-04-11T17:31:13.508Z,15.50
2023-04-11T17:34:15.315Z,13.80
2023-04-11T17:46:22.081Z,10.20
2023-04-11T17:49:23.681Z,8.10
2023-04-11T17:52:25.304Z,8.30
2023-04-11T17:55:27.177Z,9.10
2023-04-11T17:58:29.197Z,9.60
2023-04-11T18:01:31.024Z,10.00
2023-04-11T18:04:32.841Z,9.90
2023-04-11T18:07:34.490Z,10.30
2023-04-11T18:10:36.189Z,8.10
2023-04-11T18:13:38.077Z,8.10
2023-04-11T18:16:39.826Z,8.60
2023-04-11T18:19:41.458Z,10.10
2023-04-11T18:22:48.091Z,11.90
2023-04-11T18:25:49.806Z,12.90
2023-04-11T18:32:19.619Z,15.10
2023-04-11T18:35:14.815Z,16.70
2023-04-11T18:38:16.643Z,17.50
2023-04-11T18:41:18.815Z,17.90
2023-04-11T18:44:20.833Z,19.70
2023-04-11T18:47:22.669Z,20.30
2023-04-11T18:50:24.622Z,19.00
2023-04-11T18:53:26.761Z,21.90
2023-04-11T18:56:28.424Z,23.70
2023-04-11T18:59:31.309Z,24.10
2023-04-11T19:02:36.224Z,20.60
2023-04-11T19:05:37.997Z,18.40
2023-04-11T19:08:40.415Z,14.20
2023-04-11T19:14:43.566Z,10.40
2023-04-11T19:17:45.322Z,11.20
2023-04-11T19:20:46.998Z,11.70
2023-04-11T19:23:48.986Z,10.70
2023-04-11T19:26:51.515Z,10.90
2023-04-11T19:29:59.284Z,10.60
2023-04-11T19:33:04.547Z,10.90
2023-04-11T19:36:06.613Z,11.40
2023-04-11T19:39:08.307Z,12.50
2023-04-11T19:42:09.845Z,12.20
2023-04-11T19:45:12.017Z,13.00
2023-04-11T19:48:14.318Z,13.60
2023-04-11T19:51:15.911Z,11.50
2023-04-11T19:54:17.618Z,10.30
2023-04-11T19:57:19.420Z,10.40
2023-04-11T20:00:25.083Z,9.70
2023-04-11T20:03:28.378Z,7.20
2023-04-11T20:06:30.016Z,7.10
2023-04-11T20:09:31.865Z,6.50
2023-04-11T20:12:34.270Z,6.80
2023-04-11T20:15:35.913Z,7.30
2023-04-11T20:18:37.525Z,6.90
2023-04-11T20:21:39.112Z,7.30
2023-04-11T20:24:40.853Z,7.00
2023-04-11T20:30:44.085Z,6.70
2023-04-11T20:39:49.782Z,7.30
2023-04-11T20:42:51.289Z,7.60
2023-04-11T20:48:54.343Z,7.10
2023-04-11T20:51:55.839Z,6.50
2023-04-11T20:57:58.988Z,7.30
2023-04-11T21:01:00.664Z,6.50
2023-04-11T21:06:03.881Z,6.10
2023-04-11T21:09:05.900Z,5.60
2023-04-11T21:12:07.417Z,5.40
2023-04-11T21:15:09.553Z,5.10
2023-04-11T21:18:11.314Z,4.80
2023-04-11T21:21:13.443Z,5.20
2023-04-11T21:24:15.059Z,4.90
2023-04-11T21:30:18.226Z,5.30
2023-04-11T21:33:20.135Z,5.50
2023-04-11T21:36:21.750Z,5.10
2023-04-11T21:42:24.877Z,5.80
2023-04-11T21:48:28.060Z,4.90
2023-04-11T21:54:33.617Z,4.10
2023-04-11T21:57:35.519Z,4.10
2023-04-11T22:00:37.060Z,3.80
2023-04-11T22:09:42.172Z,4.00
2023-04-11T22:12:43.714Z,3.80
2023-04-11T22:15:46.404Z,3.80
2023-04-11T22:18:47.906Z,4.50
2023-04-11T22:21:49.503Z,4.00
2023-04-11T22:27:52.620Z,4.40
2023-04-11T22:30:54.201Z,4.30
2023-04-11T22:36:58.400Z,5.00
2023-04-11T22:40:00.122Z,4.70
2023-04-11T22:43:02.002Z,4.90
2023-04-11T22:49:08.965Z,5.10
2023-04-11T22:52:11.509Z,5.00
2023-04-11T22:55:13.411Z,5.00
2023-04-11T22:58:14.974Z,5.00
2023-04-11T23:01:16.559Z,4.90
2023-04-11T23:07:20.854Z,5.30
2023-04-11T23:13:24.268Z,5.60
2023-04-11T23:19:27.569Z,5.80
2023-04-11T23:22:29.336Z,5.90
2023-04-11T23:25:31.175Z,5.50
2023-04-11T23:28:32.843Z,5.50
2023-04-11T23:34:36.002Z,5.90
2023-04-11T23:40:39.279Z,5.50
2023-04-11T23:43:40.973Z,6.40
2023-04-11T23:49:44.378Z,5.90
2023-04-11T23:55:47.516Z,6.90
2023-04-11T23:58:49.247Z,7.50
